Aérodrome :
LOGIN :

S'inscrire | Disclaimer

   EN    FR    IT 

 










Légende :    VFR   VFR Marginal   IFR   IFR Intensif   IFR Très Intensif
Visi : 
Plafond : 
>= 8 km
>= 3000ft
5 à 8 km
1000 à 3000 ft
1500m à 5 km
500 à 1000 ft
800 à 1500m
200 à 500 ft
< 800m
< 200 ft
Symboles :   Orages  Brouillard  Fortes neiges  Fortes précipitations  Vent > 20 kt
SIGMETs :   Divers  Orages  Givrage  Turbulence  Onde Orograph.  Cendres Volcan.







- Altitude de l'aérodrome : 197 ft
- Code IATA : XOG
- Voir les cartes d'approche


LFMO - Orange

DERNIER METAR :
  • 242030Z AUTO 36011KT CAVOK 22/07 Q1016 NOSIG

METARs EXPIRÉS :
  • 242000Z AUTO 36011KT CAVOK 23/08 Q1016
  • 241930Z AUTO 36011KT 330V030 CAVOK 23/10 Q1015 BECMG 34015G25KT
  • 241900Z AUTO 35013KT CAVOK 24/10 Q1015 BECMG 34015G25KT
  • 241830Z AUTO 36014KT CAVOK 24/10 Q1015 BECMG 34015G25KT
  • 241800Z AUTO 36019KT CAVOK 26/10 Q1015 BECMG 34015G25KT

TAF TAF LFMO
Valide du 24 à 21h jusqu'au 25 à 21h UTC


242000Z 2421/2521 35015KT CAVOK
BECMG 2506/2508 35015G25KT
TEMPO 2510/2521 35020G30KT
Pas de NOTAMs connus pour ce terrain.



MET'MAP, la Météo Aéronautique d'un coup d'oeil ! - Copyright ORBIFLY Décembre 2007 - Disclaimer

ORBIFLY MET'MAP TEAM :

Programmation & Développement : Alexandra Zaïnal
Conception & Développement : Baudouin d'Aumeries
Co-Programmation & Développement : Marc-Olivier Méhu
Soutien technique & logistique : Manuel Goepfert

Contact : metmap@orbifly.com




SOURCES & CREDITS :

   NOAA